createdAt,value
2018-04-02T00:00:37.511Z,0.00
2018-04-02T00:02:33.468Z,0.00
2018-04-02T00:03:33.463Z,0.00
2018-04-02T00:05:28.408Z,0.00
2018-04-02T00:06:27.896Z,0.00
2018-04-02T00:08:22.829Z,0.00
2018-04-02T00:09:21.313Z,0.00
2018-04-02T00:11:15.271Z,0.00
2018-04-02T00:12:15.272Z,0.00
2018-04-02T00:14:08.707Z,0.00
2018-04-02T00:15:08.192Z,0.00
2018-04-02T00:17:02.605Z,0.00
2018-04-02T00:18:02.607Z,0.00
2018-04-02T00:19:58.051Z,0.00
2018-04-02T00:20:57.042Z,0.00
2018-04-02T00:22:53.492Z,0.00
2018-04-02T00:23:52.969Z,0.00
2018-04-02T00:25:48.415Z,0.00
2018-04-02T00:26:47.396Z,0.00
2018-04-02T00:28:40.800Z,0.00
2018-04-02T00:29:40.792Z,0.00
2018-04-02T00:31:35.212Z,0.00
2018-04-02T00:32:35.239Z,0.00
2018-04-02T00:34:30.670Z,0.00
2018-04-02T00:35:28.662Z,0.00
2018-04-02T00:37:24.618Z,0.00
2018-04-02T00:38:24.588Z,0.00
2018-04-02T00:40:20.540Z,0.00
2018-04-02T00:41:20.520Z,0.00
2018-04-02T00:43:17.468Z,0.00
2018-04-02T00:44:16.452Z,0.00
2018-04-02T00:46:12.427Z,0.00
2018-04-02T00:47:12.401Z,0.00
2018-04-02T00:49:06.796Z,0.00
2018-04-02T00:50:06.798Z,0.00
2018-04-02T00:52:01.232Z,0.00
2018-04-02T00:53:01.210Z,0.00
2018-04-02T00:54:54.655Z,0.00
2018-04-02T00:55:54.651Z,0.00
2018-04-02T00:57:49.096Z,0.00
2018-04-02T00:58:49.603Z,0.00
2018-04-02T01:00:45.015Z,0.00
2018-04-02T01:01:45.526Z,0.00
2018-04-02T01:03:40.962Z,0.00
2018-04-02T01:04:40.930Z,0.00
2018-04-02T01:06:35.903Z,0.00
2018-04-02T01:07:35.900Z,0.00
2018-04-02T01:09:29.827Z,0.00
2018-04-02T01:10:29.785Z,0.00
2018-04-02T01:12:24.235Z,0.00
2018-04-02T01:13:24.219Z,0.00
2018-04-02T01:15:22.177Z,0.00
2018-04-02T01:16:20.194Z,0.00
2018-04-02T01:18:19.137Z,0.00
2018-04-02T01:19:18.107Z,0.00
2018-04-02T01:21:12.529Z,0.00
2018-04-02T01:22:12.527Z,0.00
2018-04-02T01:24:06.986Z,0.00
2018-04-02T01:25:06.970Z,0.00
2018-04-02T01:27:01.393Z,0.00
2018-04-02T01:28:01.367Z,0.00
2018-04-02T01:29:56.330Z,0.00
2018-04-02T01:30:55.786Z,0.00
2018-04-02T01:32:52.261Z,0.00
2018-04-02T01:33:51.737Z,0.00
2018-04-02T01:35:46.230Z,0.00
2018-04-02T01:36:46.163Z,0.00
2018-04-02T01:38:41.117Z,0.00
2018-04-02T01:39:40.556Z,0.00
2018-04-02T01:41:35.014Z,0.00
2018-04-02T01:42:35.499Z,0.00
2018-04-02T01:44:29.437Z,0.00
2018-04-02T01:45:29.941Z,0.00
2018-04-02T01:47:25.415Z,0.00
2018-04-02T01:48:25.347Z,0.00
2018-04-02T01:50:19.279Z,0.00
2018-04-02T01:51:19.716Z,0.00
2018-04-02T01:53:14.728Z,0.00
2018-04-02T01:54:14.696Z,0.00
2018-04-02T01:56:10.653Z,0.00
2018-04-02T01:57:09.136Z,0.00
2018-04-02T01:59:04.082Z,0.00
2018-04-02T02:00:03.540Z,0.00
2018-04-02T02:01:57.979Z,0.00
2018-04-02T02:02:57.984Z,0.00
2018-04-02T02:04:52.371Z,0.00
2018-04-02T02:05:52.384Z,0.00
2018-04-02T02:07:46.823Z,0.00
2018-04-02T02:08:46.814Z,0.00
2018-04-02T02:10:40.223Z,0.00
2018-04-02T02:11:40.232Z,0.00
2018-04-02T02:13:34.673Z,0.00
2018-04-02T02:14:34.650Z,0.00
2018-04-02T02:16:29.609Z,0.00
2018-04-02T02:17:29.093Z,0.00
2018-04-02T02:19:25.067Z,0.00
2018-04-02T02:20:24.988Z,0.00
2018-04-02T02:22:21.939Z,0.00
2018-04-02T02:23:21.440Z,0.00
2018-04-02T02:25:15.878Z,0.00
2018-04-02T02:26:15.350Z,0.00
2018-04-02T02:28:11.295Z,0.00
2018-04-02T02:29:11.286Z,0.00
2018-04-02T02:31:05.752Z,0.00
2018-04-02T02:32:05.726Z,0.00
2018-04-02T02:34:01.170Z,0.00
2018-04-02T02:35:00.199Z,0.00
2018-04-02T02:36:57.117Z,0.00
2018-04-02T02:37:56.115Z,0.00
2018-04-02T02:39:51.065Z,0.00
2018-04-02T02:40:50.548Z,0.00
2018-04-02T02:42:44.504Z,0.00
2018-04-02T02:43:44.494Z,0.00
2018-04-02T02:45:39.918Z,0.00
2018-04-02T02:46:39.883Z,0.00
2018-04-02T02:48:37.826Z,0.00
2018-04-02T02:49:35.790Z,0.00
2018-04-02T02:51:31.710Z,0.00
2018-04-02T02:52:31.715Z,0.00
2018-04-02T02:54:26.658Z,0.00
2018-04-02T02:55:26.135Z,0.00
2018-04-02T02:57:20.595Z,0.00
2018-04-02T02:58:20.580Z,0.00
2018-04-02T03:00:16.516Z,0.00
2018-04-02T03:01:17.078Z,0.00
2018-04-02T03:03:10.952Z,0.00
2018-04-02T03:04:11.452Z,0.00
2018-04-02T03:06:07.895Z,0.00
2018-04-02T03:07:06.860Z,0.00
2018-04-02T03:09:01.806Z,0.00
2018-04-02T03:10:01.264Z,0.00
2018-04-02T03:11:54.690Z,0.00
2018-04-02T03:12:54.682Z,0.00
2018-04-02T03:14:50.610Z,0.00
2018-04-02T03:15:51.127Z,0.00
2018-04-02T03:17:45.551Z,0.00
2018-04-02T03:18:45.568Z,0.00
2018-04-02T03:20:41.016Z,0.00
2018-04-02T03:21:40.978Z,0.00
2018-04-02T03:23:35.440Z,0.00
2018-04-02T03:24:35.418Z,0.00
2018-04-02T03:26:29.874Z,0.00
2018-04-02T03:27:29.864Z,0.00
2018-04-02T03:29:24.269Z,0.00
2018-04-02T03:30:24.251Z,0.00
2018-04-02T03:32:20.224Z,0.00
2018-04-02T03:33:20.175Z,0.00
2018-04-02T03:35:15.132Z,0.00
2018-04-02T03:36:14.602Z,0.00
2018-04-02T03:38:09.072Z,0.00
2018-04-02T03:39:08.025Z,0.00
2018-04-02T03:41:03.973Z,0.00
2018-04-02T03:42:03.959Z,0.00
2018-04-02T03:43:59.905Z,0.00
2018-04-02T03:44:59.881Z,0.00
2018-04-02T03:46:54.318Z,0.00
2018-04-02T03:47:54.823Z,0.00
2018-04-02T03:49:50.226Z,0.00
2018-04-02T03:50:50.759Z,0.00
2018-04-02T03:52:43.696Z,0.00
2018-04-02T03:53:43.669Z,0.00
2018-04-02T03:55:38.607Z,0.00
2018-04-02T03:56:38.088Z,0.00
2018-04-02T03:58:32.480Z,0.00
2018-04-02T03:59:32.469Z,0.00
2018-04-02T04:01:28.409Z,0.00
2018-04-02T04:02:28.398Z,0.00
2018-04-02T04:04:24.280Z,0.00
2018-04-02T04:05:22.818Z,0.00
2018-04-02T04:07:18.780Z,0.00
2018-04-02T04:08:18.751Z,0.00
2018-04-02T04:10:15.213Z,0.00
2018-04-02T04:11:14.703Z,0.00
2018-04-02T04:13:09.162Z,0.00
2018-04-02T04:14:09.125Z,0.00
2018-04-02T04:16:03.554Z,0.00
2018-04-02T04:17:04.080Z,0.00
2018-04-02T04:18:59.521Z,0.00
2018-04-02T04:20:00.007Z,0.00
2018-04-02T04:21:53.930Z,0.00
2018-04-02T04:22:53.905Z,0.00
2018-04-02T04:24:49.865Z,0.00
2018-04-02T04:25:50.345Z,0.00
2018-04-02T04:27:59.295Z,0.00
2018-04-02T04:28:58.270Z,0.00
2018-04-02T04:30:54.235Z,0.00
2018-04-02T04:31:54.728Z,0.00
2018-04-02T04:33:53.136Z,0.00
2018-04-02T04:34:52.633Z,0.00
2018-04-02T04:36:46.585Z,0.00
2018-04-02T04:37:47.069Z,0.00
2018-04-02T04:39:44.006Z,0.00
2018-04-02T04:40:42.998Z,0.00
2018-04-02T04:42:37.442Z,0.00
2018-04-02T04:43:37.424Z,0.00
2018-04-02T04:45:31.851Z,0.00
2018-04-02T04:46:31.854Z,0.00
2018-04-02T04:48:48.280Z,0.00
2018-04-02T04:49:48.283Z,0.00
2018-04-02T04:51:42.172Z,0.00
2018-04-02T04:52:41.683Z,0.00
2018-04-02T04:54:35.628Z,0.00
2018-04-02T04:55:35.590Z,0.00
2018-04-02T04:57:31.530Z,0.00
2018-04-02T04:58:31.533Z,0.00
2018-04-02T05:00:29.974Z,0.00
2018-04-02T05:01:27.447Z,0.00
2018-04-02T05:03:21.908Z,5.63
2018-04-02T05:04:21.880Z,5.63
2018-04-02T05:06:19.333Z,5.63
2018-04-02T05:07:18.824Z,5.63
2018-04-02T05:09:12.781Z,5.63
2018-04-02T05:10:12.787Z,5.63
2018-04-02T05:12:08.152Z,11.25
2018-04-02T05:13:08.172Z,11.25
2018-04-02T05:15:02.615Z,11.25
2018-04-02T05:16:02.108Z,11.25
2018-04-02T05:17:57.549Z,16.88
2018-04-02T05:18:58.033Z,16.88
2018-04-02T05:20:52.946Z,16.88
2018-04-02T05:21:52.464Z,22.50
2018-04-02T05:23:52.395Z,22.50
2018-04-02T05:24:52.878Z,22.50
2018-04-02T05:26:46.824Z,28.13
2018-04-02T05:27:46.782Z,28.13
2018-04-02T05:29:41.254Z,33.75
2018-04-02T05:30:41.753Z,33.75
2018-04-02T05:32:35.692Z,39.38
2018-04-02T05:33:36.207Z,39.38
2018-04-02T05:35:29.641Z,39.38
2018-04-02T05:36:29.621Z,39.38
2018-04-02T05:38:25.557Z,39.38
2018-04-02T05:39:25.557Z,39.38
2018-04-02T05:41:24.468Z,45.00
2018-04-02T05:42:23.460Z,50.63
2018-04-02T05:44:17.892Z,56.25
2018-04-02T05:45:17.383Z,56.25
2018-04-02T05:47:16.750Z,56.25
2018-04-02T05:48:16.314Z,56.25
2018-04-02T05:50:09.884Z,61.88
2018-04-02T05:51:09.831Z,61.88
2018-04-02T05:53:06.793Z,67.50
2018-04-02T05:54:06.284Z,73.13
2018-04-02T05:56:06.720Z,67.50
2018-04-02T05:57:06.191Z,73.13
2018-04-02T05:59:02.168Z,73.13
2018-04-02T06:00:02.646Z,73.13
2018-04-02T06:01:58.546Z,78.75
2018-04-02T06:02:58.542Z,78.75
2018-04-02T06:04:52.966Z,84.38
2018-04-02T06:05:52.968Z,90.00
2018-04-02T06:07:48.418Z,90.00
2018-04-02T06:08:48.899Z,90.00
2018-04-02T06:10:43.344Z,101.25
2018-04-02T06:11:42.822Z,106.88
2018-04-02T06:13:43.759Z,118.13
2018-04-02T06:14:43.765Z,118.13
2018-04-02T06:16:42.752Z,112.50
2018-04-02T06:17:42.197Z,112.50
2018-04-02T06:19:37.236Z,118.13
2018-04-02T06:20:37.205Z,118.13
2018-04-02T06:22:34.589Z,129.38
2018-04-02T06:23:32.160Z,140.63
2018-04-02T06:25:32.111Z,157.50
2018-04-02T06:26:33.088Z,168.75
2018-04-02T06:28:27.551Z,163.13
2018-04-02T06:29:27.477Z,168.75
2018-04-02T06:31:19.961Z,185.63
2018-04-02T06:32:20.452Z,191.25
2018-04-02T06:34:25.382Z,196.88
2018-04-02T06:35:25.388Z,191.25
2018-04-02T06:37:31.343Z,174.38
2018-04-02T06:38:31.844Z,168.75
2018-04-02T06:40:28.272Z,168.75
2018-04-02T06:41:27.242Z,174.38
2018-04-02T06:43:21.708Z,168.75
2018-04-02T06:44:22.188Z,168.75
2018-04-02T06:46:15.643Z,168.75
2018-04-02T06:47:15.133Z,168.75
2018-04-02T06:49:09.103Z,168.75
2018-04-02T06:50:09.056Z,174.38
2018-04-02T06:52:03.452Z,185.63
2018-04-02T06:53:01.934Z,191.25
2018-04-02T06:54:55.403Z,196.88
2018-04-02T06:55:55.885Z,196.88
2018-04-02T06:57:51.859Z,208.13
2018-04-02T06:58:51.830Z,208.13
2018-04-02T07:00:46.789Z,196.88
2018-04-02T07:01:46.274Z,196.88
2018-04-02T07:03:40.227Z,202.50
2018-04-02T07:04:39.188Z,202.50
2018-04-02T07:06:35.659Z,202.50
2018-04-02T07:07:35.120Z,208.13
2018-04-02T07:09:31.075Z,213.75
2018-04-02T07:10:31.069Z,219.38
2018-04-02T07:12:27.028Z,225.00
2018-04-02T07:13:26.990Z,230.63
2018-04-02T07:15:21.450Z,241.88
2018-04-02T07:16:21.432Z,241.88
2018-04-02T07:18:15.885Z,253.13
2018-04-02T07:19:16.384Z,258.75
2018-04-02T07:21:11.316Z,264.38
2018-04-02T07:22:10.826Z,264.38
2018-04-02T07:24:06.259Z,258.75
2018-04-02T07:25:06.255Z,258.75
2018-04-02T07:27:02.218Z,275.63
2018-04-02T07:28:02.192Z,286.88
2018-04-02T07:29:56.746Z,292.50
2018-04-02T07:30:56.144Z,292.50
2018-04-02T07:32:49.092Z,292.50
2018-04-02T07:33:49.609Z,286.88
2018-04-02T07:35:43.497Z,303.75
2018-04-02T07:36:43.484Z,303.75
2018-04-02T07:38:38.445Z,298.13
2018-04-02T07:39:37.895Z,298.13
2018-04-02T07:41:33.842Z,298.13
2018-04-02T07:42:33.841Z,292.50
2018-04-02T07:44:29.793Z,292.50
2018-04-02T07:45:29.778Z,303.75
2018-04-02T07:47:25.744Z,303.75
2018-04-02T07:48:26.231Z,298.13
2018-04-02T07:50:20.708Z,309.38
2018-04-02T07:51:20.186Z,320.63
2018-04-02T07:53:15.147Z,337.50
2018-04-02T07:54:14.633Z,348.75
2018-04-02T07:56:09.114Z,337.50
2018-04-02T07:57:09.072Z,326.25
2018-04-02T07:59:04.439Z,343.13
2018-04-02T08:00:03.476Z,343.13
2018-04-02T08:01:58.925Z,331.88
2018-04-02T08:02:59.467Z,337.50
2018-04-02T08:04:52.329Z,354.38
2018-04-02T08:05:52.860Z,348.75
2018-04-02T08:07:46.832Z,326.25
2018-04-02T08:08:46.799Z,343.13
2018-04-02T08:10:42.221Z,427.50
2018-04-02T08:11:41.239Z,416.25
2018-04-02T08:13:35.687Z,382.50
2018-04-02T08:14:36.686Z,371.25
2018-04-02T08:16:29.653Z,382.50
2018-04-02T08:17:30.653Z,382.50
2018-04-02T08:19:24.111Z,388.13
2018-04-02T08:20:23.538Z,393.75
2018-04-02T08:22:16.983Z,382.50
2018-04-02T08:23:16.966Z,382.50
2018-04-02T08:25:12.419Z,393.75
2018-04-02T08:26:11.468Z,399.38
2018-04-02T08:28:07.349Z,393.75
2018-04-02T08:29:05.919Z,405.00
2018-04-02T08:31:02.848Z,410.63
2018-04-02T08:32:01.858Z,416.25
2018-04-02T08:33:56.805Z,416.25
2018-04-02T08:34:56.280Z,421.88
2018-04-02T08:36:50.718Z,427.50
2018-04-02T08:37:50.723Z,427.50
2018-04-02T08:39:45.204Z,438.75
2018-04-02T08:40:45.174Z,433.13
2018-04-02T08:42:41.128Z,444.38
2018-04-02T08:43:41.615Z,450.00
2018-04-02T08:45:35.065Z,427.50
2018-04-02T08:46:34.568Z,421.88
2018-04-02T08:48:27.945Z,433.13
2018-04-02T08:49:27.973Z,450.00
2018-04-02T08:51:23.414Z,450.00
2018-04-02T08:52:22.419Z,450.00
2018-04-02T08:54:17.365Z,450.00
2018-04-02T08:55:16.860Z,455.63
2018-04-02T08:57:13.327Z,461.25
2018-04-02T08:58:12.803Z,466.88
2018-04-02T09:00:06.255Z,472.50
2018-04-02T09:01:06.250Z,466.88
2018-04-02T09:03:00.724Z,472.50
2018-04-02T09:04:00.712Z,478.13
2018-04-02T09:05:55.661Z,500.63
2018-04-02T09:06:55.660Z,495.00
2018-04-02T09:08:50.608Z,495.00
2018-04-02T09:09:49.539Z,489.38
2018-04-02T09:11:43.003Z,478.13
2018-04-02T09:12:42.999Z,478.13
2018-04-02T09:14:37.480Z,466.88
2018-04-02T09:15:37.966Z,466.88
2018-04-02T09:17:32.385Z,472.50
2018-04-02T09:18:31.871Z,466.88
2018-04-02T09:20:26.825Z,455.63
2018-04-02T09:21:26.323Z,461.25
2018-04-02T09:23:20.777Z,495.00
2018-04-02T09:24:21.265Z,506.25
2018-04-02T09:26:15.653Z,489.38
2018-04-02T09:27:14.210Z,483.75
2018-04-02T09:29:11.675Z,511.88
2018-04-02T09:30:10.665Z,534.38
2018-04-02T09:32:04.595Z,545.63
2018-04-02T09:33:04.592Z,517.50
2018-04-02T09:34:59.544Z,478.13
2018-04-02T09:35:59.042Z,483.75
2018-04-02T09:37:53.515Z,506.25
2018-04-02T09:38:53.475Z,517.50
2018-04-02T09:40:48.450Z,506.25
2018-04-02T09:41:47.918Z,523.13
2018-04-02T09:43:42.407Z,528.75
2018-04-02T09:44:42.379Z,511.88
2018-04-02T09:46:36.805Z,506.25
2018-04-02T09:47:36.819Z,495.00
2018-04-02T09:49:30.261Z,483.75
2018-04-02T09:50:30.771Z,478.13
2018-04-02T09:52:23.719Z,478.13
2018-04-02T09:53:23.709Z,489.38
2018-04-02T09:55:19.706Z,511.88
2018-04-02T09:56:20.171Z,517.50
2018-04-02T09:58:15.615Z,534.38
2018-04-02T09:59:15.749Z,534.38
2018-04-02T10:01:11.598Z,506.25
2018-04-02T10:02:11.563Z,489.38
2018-04-02T10:04:06.528Z,461.25
2018-04-02T10:05:06.147Z,455.63
2018-04-02T10:07:00.989Z,444.38
2018-04-02T10:08:00.454Z,438.75
2018-04-02T10:09:53.921Z,450.00
2018-04-02T10:10:54.416Z,455.63
2018-04-02T10:12:48.866Z,483.75
2018-04-02T10:13:48.352Z,489.38
2018-04-02T10:15:44.312Z,534.38
2018-04-02T10:16:42.804Z,551.25
2018-04-02T10:18:37.283Z,517.50
2018-04-02T10:19:37.218Z,489.38
2018-04-02T10:21:32.171Z,466.88
2018-04-02T10:22:31.713Z,483.75
2018-04-02T10:24:26.627Z,483.75
2018-04-02T10:25:26.130Z,489.38
2018-04-02T10:27:21.593Z,511.88
2018-04-02T10:28:20.572Z,540.00
2018-04-02T10:30:15.046Z,562.50
2018-04-02T10:31:15.035Z,568.13
2018-04-02T10:33:08.986Z,545.63
2018-04-02T10:34:08.475Z,545.63
2018-04-02T10:36:02.941Z,562.50
2018-04-02T10:37:02.912Z,551.25
2018-04-02T10:38:57.389Z,517.50
2018-04-02T10:39:57.345Z,506.25
2018-04-02T10:41:50.800Z,540.00
2018-04-02T10:42:50.798Z,556.88
2018-04-02T10:44:46.736Z,562.50
2018-04-02T10:45:46.755Z,545.63
2018-04-02T10:47:41.234Z,506.25
2018-04-02T10:48:41.230Z,511.88
2018-04-02T10:50:36.160Z,528.75
2018-04-02T10:51:35.654Z,540.00
2018-04-02T10:53:31.101Z,545.63
2018-04-02T10:54:30.124Z,506.25
2018-04-02T10:56:25.489Z,466.88
2018-04-02T10:57:24.548Z,466.88
2018-04-02T10:59:18.974Z,500.63
2018-04-02T11:00:19.526Z,506.25
2018-04-02T11:02:13.434Z,483.75
2018-04-02T11:03:14.437Z,489.38
2018-04-02T11:06:07.898Z,511.88
2018-04-02T11:08:03.886Z,540.00
2018-04-02T11:09:03.873Z,556.88
2018-04-02T11:10:58.325Z,573.75
2018-04-02T11:11:58.833Z,568.13
2018-04-02T11:13:54.273Z,573.75
2018-04-02T11:14:54.266Z,568.13
2018-04-02T11:16:49.224Z,568.13
2018-04-02T11:17:48.720Z,562.50
2018-04-02T11:19:43.684Z,573.75
2018-04-02T11:20:43.183Z,590.63
2018-04-02T11:22:38.149Z,573.75
2018-04-02T11:23:37.627Z,568.13
2018-04-02T11:25:33.091Z,545.63
2018-04-02T11:26:32.082Z,556.88
2018-04-02T11:28:28.558Z,556.88
2018-04-02T11:29:28.014Z,568.13
2018-04-02T11:31:22.965Z,568.13
2018-04-02T11:32:22.459Z,568.13
2018-04-02T11:34:18.436Z,579.38
2018-04-02T11:35:18.401Z,556.88
2018-04-02T11:37:13.377Z,540.00
2018-04-02T11:38:12.854Z,551.25
2018-04-02T11:40:09.314Z,585.00
2018-04-02T11:41:07.311Z,585.00
2018-04-02T11:43:02.265Z,568.13
2018-04-02T11:44:01.766Z,562.50
2018-04-02T11:45:55.240Z,534.38
2018-04-02T11:46:55.705Z,528.75
2018-04-02T11:48:48.604Z,495.00
2018-04-02T11:49:48.622Z,489.38
2018-04-02T11:51:43.090Z,523.13
2018-04-02T11:52:43.080Z,528.75
2018-04-02T11:54:38.034Z,523.13
2018-04-02T11:55:38.527Z,534.38
2018-04-02T11:57:31.503Z,568.13
2018-04-02T11:58:30.983Z,540.00
2018-04-02T12:00:26.948Z,545.63
2018-04-02T12:01:27.451Z,562.50
2018-04-02T12:03:20.926Z,579.38
2018-04-02T12:04:20.902Z,585.00
2018-04-02T12:06:15.355Z,551.25
2018-04-02T12:07:15.354Z,523.13
2018-04-02T12:09:09.324Z,483.75
2018-04-02T12:10:09.271Z,472.50
2018-04-02T12:12:05.226Z,506.25
2018-04-02T12:13:05.226Z,517.50
2018-04-02T12:15:01.679Z,495.00
2018-04-02T12:16:01.198Z,489.38
2018-04-02T12:17:55.672Z,455.63
2018-04-02T12:18:56.653Z,427.50
2018-04-02T12:20:50.669Z,450.00
2018-04-02T12:21:50.605Z,455.63
2018-04-02T12:23:44.565Z,500.63
2018-04-02T12:24:44.557Z,511.88
2018-04-02T12:26:40.011Z,523.13
2018-04-02T12:27:39.019Z,500.63
2018-04-02T12:29:33.993Z,438.75
2018-04-02T12:30:33.998Z,382.50
2018-04-02T12:32:27.974Z,331.88
2018-04-02T12:33:27.950Z,343.13
2018-04-02T12:35:21.397Z,337.50
2018-04-02T12:36:21.907Z,354.38
2018-04-02T12:38:15.867Z,365.63
2018-04-02T12:39:15.898Z,343.13
2018-04-02T12:41:10.830Z,281.25
2018-04-02T12:42:10.343Z,264.38
2018-04-02T12:44:04.819Z,258.75
2018-04-02T12:45:04.781Z,253.13
2018-04-02T12:46:59.235Z,264.38
2018-04-02T12:47:59.733Z,275.63
2018-04-02T12:49:52.694Z,281.25
2018-04-02T12:50:53.196Z,292.50
2018-04-02T12:52:47.640Z,309.38
2018-04-02T12:53:47.650Z,326.25
2018-04-02T12:55:41.592Z,376.88
2018-04-02T12:56:43.097Z,393.75
2018-04-02T12:58:37.037Z,416.25
2018-04-02T12:59:36.017Z,433.13
2018-04-02T13:01:30.958Z,416.25
2018-04-02T13:02:30.446Z,393.75
2018-04-02T13:04:25.935Z,348.75
2018-04-02T13:05:24.896Z,337.50
2018-04-02T13:07:19.366Z,348.75
2018-04-02T13:08:20.396Z,360.00
2018-04-02T13:10:14.351Z,376.88
2018-04-02T13:11:13.827Z,388.13
2018-04-02T13:13:08.804Z,399.38
2018-04-02T13:14:08.283Z,405.00
2018-04-02T13:16:02.744Z,444.38
2018-04-02T13:17:02.776Z,450.00
2018-04-02T13:18:57.704Z,466.88
2018-04-02T13:19:57.172Z,455.63
2018-04-02T13:21:51.136Z,421.88
2018-04-02T13:22:51.134Z,427.50
2018-04-02T13:24:45.310Z,450.00
2018-04-02T13:25:45.259Z,450.00
2018-04-02T13:27:40.236Z,438.75
2018-04-02T13:28:39.708Z,427.50
2018-04-02T13:30:34.172Z,438.75
2018-04-02T13:31:34.687Z,450.00
2018-04-02T13:33:30.135Z,450.00
2018-04-02T13:34:30.108Z,438.75
2018-04-02T13:36:25.584Z,461.25
2018-04-02T13:37:25.568Z,472.50
2018-04-02T13:39:18.534Z,511.88
2018-04-02T13:40:17.983Z,517.50
2018-04-02T13:42:13.987Z,500.63
2018-04-02T13:43:13.982Z,489.38
2018-04-02T13:45:07.463Z,478.13
2018-04-02T13:46:07.430Z,472.50
2018-04-02T13:48:02.913Z,461.25
2018-04-02T13:49:01.894Z,455.63
2018-04-02T13:50:57.274Z,438.75
2018-04-02T13:51:56.332Z,433.13
2018-04-02T13:53:51.811Z,421.88
2018-04-02T13:54:50.816Z,416.25
2018-04-02T13:56:44.302Z,410.63
2018-04-02T13:57:44.326Z,410.63
2018-04-02T13:59:38.712Z,410.63
2018-04-02T14:00:39.728Z,410.63
2018-04-02T14:02:32.201Z,388.13
2018-04-02T14:03:33.229Z,360.00
2018-04-02T14:05:26.641Z,315.00
2018-04-02T14:06:26.663Z,286.88
2018-04-02T14:08:23.606Z,309.38
2018-04-02T14:09:22.631Z,410.63
2018-04-02T14:11:17.093Z,517.50
2018-04-02T14:12:17.089Z,483.75
2018-04-02T14:14:12.047Z,382.50
2018-04-02T14:15:11.542Z,337.50
2018-04-02T14:17:06.014Z,292.50
2018-04-02T14:18:05.988Z,292.50
2018-04-02T14:20:00.954Z,371.25
2018-04-02T14:21:00.447Z,405.00
2018-04-02T14:22:54.924Z,461.25
2018-04-02T14:23:54.911Z,461.25
2018-04-02T14:25:49.867Z,410.63
2018-04-02T14:26:49.389Z,393.75
2018-04-02T14:28:43.331Z,382.50
2018-04-02T14:29:42.792Z,337.50
2018-04-02T14:31:38.283Z,303.75
2018-04-02T14:32:37.774Z,298.13
2018-04-02T14:34:31.747Z,337.50
2018-04-02T14:35:31.728Z,348.75
2018-04-02T14:37:26.185Z,343.13
2018-04-02T14:38:26.146Z,360.00
2018-04-02T14:40:20.644Z,360.00
2018-04-02T14:41:20.609Z,354.38
2018-04-02T14:43:14.585Z,371.25
2018-04-02T14:44:14.068Z,365.63
2018-04-02T14:46:07.502Z,343.13
2018-04-02T14:47:08.022Z,354.38
2018-04-02T14:49:01.474Z,337.50
2018-04-02T14:50:01.473Z,320.63
2018-04-02T14:51:55.387Z,253.13
2018-04-02T14:52:55.376Z,230.63
2018-04-02T14:54:49.872Z,213.75
2018-04-02T14:55:50.332Z,219.38
2018-04-02T14:57:45.767Z,236.25
2018-04-02T14:58:46.317Z,225.00
2018-04-02T15:00:41.746Z,230.63
2018-04-02T15:01:41.737Z,258.75
2018-04-02T15:03:36.699Z,298.13
2018-04-02T15:04:35.692Z,309.38
2018-04-02T15:06:30.168Z,309.38
2018-04-02T15:07:29.639Z,281.25
2018-04-02T15:09:25.550Z,258.75
2018-04-02T15:10:25.557Z,309.38
2018-04-02T15:12:21.547Z,315.00
2018-04-02T15:13:21.527Z,292.50
2018-04-02T15:15:14.992Z,241.88
2018-04-02T15:16:14.981Z,230.63
2018-04-02T15:18:09.920Z,208.13
2018-04-02T15:19:09.415Z,196.88
2018-04-02T15:21:02.860Z,168.75
2018-04-02T15:22:03.378Z,157.50
2018-04-02T15:24:01.834Z,135.00
2018-04-02T15:25:02.250Z,123.75
2018-04-02T15:27:01.288Z,129.38
2018-04-02T15:28:01.287Z,135.00
2018-04-02T15:29:55.740Z,151.88
2018-04-02T15:30:56.713Z,163.13
2018-04-02T15:32:50.197Z,174.38
2018-04-02T15:33:50.701Z,185.63
2018-04-02T15:35:45.642Z,163.13
2018-04-02T15:36:44.145Z,185.63
2018-04-02T15:38:44.095Z,208.13
2018-04-02T15:39:44.605Z,241.88
2018-04-02T15:41:39.524Z,292.50
2018-04-02T15:42:38.495Z,286.88
2018-04-02T15:44:32.947Z,236.25
2018-04-02T15:45:33.469Z,208.13
2018-04-02T15:47:26.434Z,174.38
2018-04-02T15:48:26.911Z,157.50
2018-04-02T15:50:21.846Z,146.25
2018-04-02T15:51:21.353Z,146.25
2018-04-02T15:53:16.303Z,151.88
2018-04-02T15:54:17.229Z,146.25
2018-04-02T15:56:09.770Z,151.88
2018-04-02T15:57:10.265Z,151.88
2018-04-02T15:59:03.712Z,157.50
2018-04-02T16:00:03.162Z,157.50
2018-04-02T16:01:58.620Z,151.88
2018-04-02T16:02:58.627Z,157.50
2018-04-02T16:04:52.106Z,163.13
2018-04-02T16:05:52.580Z,163.13
2018-04-02T16:07:48.051Z,163.13
2018-04-02T16:08:48.522Z,163.13
2018-04-02T16:10:41.507Z,163.13
2018-04-02T16:11:41.993Z,163.13
2018-04-02T16:13:36.935Z,168.75
2018-04-02T16:14:36.431Z,163.13
2018-04-02T16:16:45.899Z,174.38
2018-04-02T16:17:45.393Z,168.75
2018-04-02T16:19:39.361Z,168.75
2018-04-02T16:20:39.364Z,163.13
2018-04-02T16:22:46.344Z,157.50
2018-04-02T16:25:02.303Z,151.88
2018-04-02T16:26:02.795Z,146.25
2018-04-02T16:27:55.740Z,135.00
2018-04-02T16:28:55.708Z,135.00
2018-04-02T16:30:49.680Z,129.38
2018-04-02T16:31:49.172Z,129.38
2018-04-02T16:33:44.147Z,123.75
2018-04-02T16:34:43.613Z,118.13
2018-04-02T16:36:37.565Z,123.75
2018-04-02T16:37:37.051Z,123.75
2018-04-02T16:39:34.503Z,118.13
2018-04-02T16:40:33.013Z,112.50
2018-04-02T16:42:27.470Z,101.25
2018-04-02T16:43:27.486Z,95.63
2018-04-02T16:45:21.946Z,95.63
2018-04-02T16:46:22.429Z,95.63
2018-04-02T16:48:28.893Z,95.63
2018-04-02T16:49:27.833Z,95.63
2018-04-02T16:51:22.306Z,95.63
2018-04-02T16:52:22.298Z,95.63
2018-04-02T16:54:17.774Z,84.38
2018-04-02T16:55:16.760Z,73.13
2018-04-02T16:57:11.200Z,50.63
2018-04-02T16:58:11.724Z,45.00
2018-04-02T17:00:04.685Z,33.75
2018-04-02T17:01:04.676Z,33.75
2018-04-02T17:02:59.136Z,39.38
2018-04-02T17:03:59.595Z,45.00
2018-04-02T17:05:52.578Z,50.63
2018-04-02T17:06:53.051Z,50.63
2018-04-02T17:08:47.995Z,39.38
2018-04-02T17:09:47.495Z,39.38
2018-04-02T17:13:15.549Z,45.00
2018-04-02T17:14:16.423Z,45.00
2018-04-02T17:16:09.022Z,45.00
2018-04-02T17:17:09.501Z,45.00
2018-04-02T17:19:05.371Z,45.00
2018-04-02T17:20:03.422Z,39.38
2018-04-02T17:22:03.362Z,28.13
2018-04-02T17:23:01.854Z,22.50
2018-04-02T17:24:59.312Z,22.50
2018-04-02T17:25:57.821Z,22.50
2018-04-02T17:27:53.271Z,16.88
2018-04-02T17:28:53.758Z,16.88
2018-04-02T17:30:47.682Z,22.50
2018-04-02T17:31:47.703Z,22.50
2018-04-02T17:33:44.669Z,16.88
2018-04-02T17:34:44.148Z,16.88
2018-04-02T17:36:38.148Z,16.88
2018-04-02T17:37:38.598Z,16.88
2018-04-02T17:39:34.025Z,16.88
2018-04-02T17:40:34.035Z,16.88
2018-04-02T17:42:28.500Z,11.25
2018-04-02T17:43:28.501Z,11.25
2018-04-02T17:45:26.408Z,11.25
2018-04-02T17:46:26.937Z,5.63
2018-04-02T17:48:22.372Z,5.63
2018-04-02T17:49:22.875Z,5.63
2018-04-02T17:51:18.348Z,5.63
2018-04-02T17:52:19.324Z,5.63
2018-04-02T17:54:14.280Z,5.63
2018-04-02T17:55:14.285Z,5.63
2018-04-02T17:57:07.721Z,0.00
2018-04-02T17:58:07.747Z,0.00
2018-04-02T18:00:01.682Z,0.00
2018-04-02T18:01:02.194Z,0.00
2018-04-02T18:02:57.674Z,0.00
2018-04-02T18:03:57.148Z,0.00
2018-04-02T18:05:51.655Z,0.00
2018-04-02T18:06:51.730Z,0.00
2018-04-02T18:08:47.578Z,0.00
2018-04-02T18:09:47.531Z,0.00
2018-04-02T18:11:41.954Z,0.00
2018-04-02T18:12:41.980Z,0.00
2018-04-02T18:14:35.442Z,0.00
2018-04-02T18:15:35.423Z,0.00
2018-04-02T18:17:31.394Z,0.00
2018-04-02T18:18:31.356Z,0.00
2018-04-02T18:20:25.786Z,0.00
2018-04-02T18:21:25.819Z,0.00
2018-04-02T18:23:20.284Z,0.00
2018-04-02T18:24:20.247Z,0.00
2018-04-02T18:26:14.727Z,0.00
2018-04-02T18:27:14.728Z,0.00
2018-04-02T18:29:08.124Z,0.00
2018-04-02T18:30:08.132Z,0.00
2018-04-02T18:32:01.587Z,0.00
2018-04-02T18:33:01.580Z,0.00
2018-04-02T18:34:58.010Z,0.00
2018-04-02T18:35:57.076Z,0.00
2018-04-02T18:37:52.518Z,0.00
2018-04-02T18:38:53.490Z,0.00
2018-04-02T18:40:48.943Z,0.00
2018-04-02T18:41:47.948Z,0.00